CAL128 RCTP-RJFF
Flight info
| Callsign | CAL128 |
|---|---|
| Flight time | 1h 45m |
| Altitude | 33000 |
| Route | MOLKA1C MOLKA M750 MOMPA Y25 ISKUP |
| Aircraft | B77W/H-SDE1E2E3FGHIJ2J3J4J5M1RWXY/LB1D1 |
Departure
| Time | 2026-05-07 10:49 |
|---|---|
| Airport | Taiwan Taoyuan International Airport (RCTP) |
Arrival
| Time | 2026-05-07 12:34 |
|---|---|
| Airport | Fukuoka Airport (RJFF) |
| Time | Latitude | Longitude | Altitude | Speed | Heading |
|---|---|---|---|---|---|
| 2026-05-07 10:10 | 25.08174 | 121.23381 | 123 ft | 0 kts | 139° |
| 2026-05-07 10:34 | 25.08175 | 121.23380 | 123 ft | 1 kts | 139° |
| 2026-05-07 10:34 | 25.08186 | 121.23370 | 123 ft | 2 kts | 139° |
| 2026-05-07 10:35 | 25.08197 | 121.23359 | 123 ft | 2 kts | 139° |
| 2026-05-07 10:35 | 25.08209 | 121.23348 | 123 ft | 2 kts | 139° |
| 2026-05-07 10:35 | 25.08220 | 121.23338 | 123 ft | 2 kts | 141° |
| 2026-05-07 10:35 | 25.08233 | 121.23329 | 123 ft | 2 kts | 165° |
| 2026-05-07 10:36 | 25.08248 | 121.23328 | 123 ft | 2 kts | 186° |
| 2026-05-07 10:36 | 25.08262 | 121.23332 | 123 ft | 2 kts | 205° |
| 2026-05-07 10:36 | 25.08275 | 121.23340 | 123 ft | 2 kts | 225° |
| 2026-05-07 10:36 | 25.08279 | 121.23345 | 123 ft | 0 kts | 230° |
| 2026-05-07 10:37 | 25.08279 | 121.23346 | 123 ft | 0 kts | 230° |
| 2026-05-07 10:40 | 25.08279 | 121.23345 | 123 ft | 0 kts | 230° |
| 2026-05-07 10:40 | 25.08275 | 121.23341 | 123 ft | 1 kts | 228° |
| 2026-05-07 10:40 | 25.08262 | 121.23325 | 123 ft | 3 kts | 228° |
| 2026-05-07 10:41 | 25.08239 | 121.23295 | 123 ft | 6 kts | 229° |
| 2026-05-07 10:41 | 25.08206 | 121.23254 | 123 ft | 7 kts | 229° |
| 2026-05-07 10:41 | 25.08168 | 121.23205 | 123 ft | 8 kts | 229° |
| 2026-05-07 10:41 | 25.08156 | 121.23165 | 123 ft | 5 kts | 295° |
| 2026-05-07 10:42 | 25.08185 | 121.23130 | 123 ft | 6 kts | 315° |
| 2026-05-07 10:42 | 25.08203 | 121.23098 | 123 ft | 4 kts | 268° |
| 2026-05-07 10:42 | 25.08185 | 121.23061 | 123 ft | 7 kts | 233° |
| 2026-05-07 10:42 | 25.08135 | 121.22998 | 123 ft | 14 kts | 228° |
| 2026-05-07 10:43 | 25.08053 | 121.22894 | 123 ft | 21 kts | 229° |
| 2026-05-07 10:43 | 25.07945 | 121.22755 | 123 ft | 25 kts | 229° |
| 2026-05-07 10:43 | 25.07832 | 121.22612 | 123 ft | 24 kts | 229° |
| 2026-05-07 10:43 | 25.07722 | 121.22472 | 123 ft | 23 kts | 229° |
| 2026-05-07 10:44 | 25.07618 | 121.22339 | 123 ft | 22 kts | 229° |
| 2026-05-07 10:44 | 25.07515 | 121.22210 | 123 ft | 21 kts | 229° |
| 2026-05-07 10:44 | 25.07418 | 121.22086 | 123 ft | 21 kts | 229° |
| 2026-05-07 10:44 | 25.07324 | 121.21966 | 123 ft | 20 kts | 229° |
| 2026-05-07 10:45 | 25.07233 | 121.21851 | 123 ft | 19 kts | 229° |
| 2026-05-07 10:45 | 25.07167 | 121.21765 | 123 ft | 5 kts | 232° |
| 2026-05-07 10:45 | 25.07169 | 121.21731 | 123 ft | 5 kts | 306° |
| 2026-05-07 10:45 | 25.07202 | 121.21693 | 123 ft | 6 kts | 319° |
| 2026-05-07 10:46 | 25.07205 | 121.21690 | 123 ft | 0 kts | 319° |
| 2026-05-07 10:46 | 25.07206 | 121.21690 | 123 ft | 0 kts | 319° |
| 2026-05-07 10:47 | 25.07218 | 121.21679 | 123 ft | 4 kts | 319° |
| 2026-05-07 10:47 | 25.07256 | 121.21644 | 123 ft | 7 kts | 320° |
| 2026-05-07 10:47 | 25.07291 | 121.21619 | 123 ft | 4 kts | 359° |
| 2026-05-07 10:47 | 25.07325 | 121.21645 | 123 ft | 0 kts | 49° |
| 2026-05-07 10:48 | 25.07345 | 121.21671 | 123 ft | 16 kts | 49° |
| 2026-05-07 10:48 | 25.07560 | 121.21943 | 123 ft | 81 kts | 49° |
| 2026-05-07 10:48 | 25.08073 | 121.22595 | 123 ft | 142 kts | 49° |
| 2026-05-07 10:48 | 25.08840 | 121.23567 | 232 ft | 183 kts | 48° |
| 2026-05-07 10:49 | 25.09675 | 121.24621 | 802 ft | 189 kts | 48° |
| 2026-05-07 10:49 | 25.10547 | 121.25731 | 1503 ft | 192 kts | 49° |
| 2026-05-07 10:49 | 25.11447 | 121.26887 | 1927 ft | 204 kts | 49° |
| 2026-05-07 10:49 | 25.12382 | 121.28097 | 2376 ft | 215 kts | 49° |
| 2026-05-07 10:50 | 25.13405 | 121.29392 | 2680 ft | 235 kts | 48° |
| 2026-05-07 10:50 | 25.14503 | 121.30817 | 3102 ft | 250 kts | 49° |
| 2026-05-07 10:50 | 25.15654 | 121.32334 | 3635 ft | 260 kts | 49° |
| 2026-05-07 10:50 | 25.16839 | 121.33885 | 4183 ft | 270 kts | 49° |
| 2026-05-07 10:51 | 25.18066 | 121.35468 | 4781 ft | 277 kts | 49° |
| 2026-05-07 10:51 | 25.19329 | 121.37103 | 5440 ft | 284 kts | 49° |
| 2026-05-07 10:51 | 25.20607 | 121.38763 | 6367 ft | 286 kts | 50° |
| 2026-05-07 10:51 | 25.21889 | 121.40429 | 7213 ft | 290 kts | 50° |
| 2026-05-07 10:52 | 25.23191 | 121.42123 | 8021 ft | 292 kts | 50° |
| 2026-05-07 10:52 | 25.24510 | 121.43839 | 8751 ft | 294 kts | 50° |
| 2026-05-07 10:52 | 25.25831 | 121.45559 | 9504 ft | 294 kts | 50° |
| 2026-05-07 10:52 | 25.27160 | 121.47288 | 10307 ft | 294 kts | 50° |
| 2026-05-07 10:53 | 25.28484 | 121.49047 | 10653 ft | 308 kts | 54° |
| 2026-05-07 10:53 | 25.29567 | 121.51181 | 10711 ft | 330 kts | 68° |
| 2026-05-07 10:53 | 25.30179 | 121.53715 | 10765 ft | 351 kts | 83° |
| 2026-05-07 10:53 | 25.30304 | 121.56461 | 10823 ft | 372 kts | 88° |
| 2026-05-07 10:54 | 25.30512 | 121.59173 | 11456 ft | 388 kts | 82° |
| 2026-05-07 10:54 | 25.30888 | 121.62123 | 12379 ft | 387 kts | 82° |
| 2026-05-07 10:54 | 25.31330 | 121.65019 | 13542 ft | 381 kts | 79° |
| 2026-05-07 10:54 | 25.31823 | 121.67874 | 14421 ft | 384 kts | 79° |
| 2026-05-07 10:55 | 25.32349 | 121.70788 | 15161 ft | 392 kts | 78° |
| 2026-05-07 10:55 | 25.32903 | 121.73776 | 15670 ft | 402 kts | 78° |
| 2026-05-07 10:55 | 25.33476 | 121.76815 | 16054 ft | 414 kts | 78° |
| 2026-05-07 10:55 | 25.34037 | 121.79760 | 17042 ft | 424 kts | 78° |
| 2026-05-07 10:56 | 25.34640 | 121.82909 | 18288 ft | 418 kts | 78° |
| 2026-05-07 10:56 | 25.35229 | 121.85976 | 19472 ft | 412 kts | 78° |
| 2026-05-07 10:56 | 25.35829 | 121.89094 | 20252 ft | 417 kts | 78° |
| 2026-05-07 10:56 | 25.36395 | 121.92034 | 20753 ft | 425 kts | 78° |
| 2026-05-07 10:57 | 25.37005 | 121.95203 | 21479 ft | 431 kts | 78° |
| 2026-05-07 10:57 | 25.37635 | 121.98472 | 22230 ft | 435 kts | 78° |
| 2026-05-07 10:57 | 25.38261 | 122.01724 | 22933 ft | 439 kts | 78° |
| 2026-05-07 10:57 | 25.38898 | 122.05037 | 23600 ft | 443 kts | 78° |
| 2026-05-07 10:58 | 25.39535 | 122.08351 | 23850 ft | 450 kts | 78° |
| 2026-05-07 10:58 | 25.40193 | 122.11777 | 23840 ft | 464 kts | 78° |
| 2026-05-07 10:58 | 25.40816 | 122.15025 | 25004 ft | 468 kts | 78° |
| 2026-05-07 10:58 | 25.41485 | 122.18519 | 26083 ft | 461 kts | 78° |
| 2026-05-07 10:59 | 25.42298 | 122.21912 | 26887 ft | 460 kts | 71° |
| 2026-05-07 10:59 | 25.43399 | 122.25275 | 27358 ft | 467 kts | 69° |
| 2026-05-07 10:59 | 25.44535 | 122.28630 | 27478 ft | 475 kts | 69° |
| 2026-05-07 10:59 | 25.45713 | 122.32114 | 27384 ft | 488 kts | 69° |
| 2026-05-07 11:00 | 25.46907 | 122.35654 | 27304 ft | 500 kts | 69° |
| 2026-05-07 11:00 | 25.48129 | 122.39282 | 27320 ft | 510 kts | 68° |
| 2026-05-07 11:00 | 25.49373 | 122.42983 | 27619 ft | 519 kts | 68° |
| 2026-05-07 11:00 | 25.50648 | 122.46784 | 28176 ft | 523 kts | 68° |
| 2026-05-07 11:01 | 25.51906 | 122.50541 | 28853 ft | 524 kts | 68° |
| 2026-05-07 11:01 | 25.53170 | 122.54321 | 29496 ft | 526 kts | 68° |
| 2026-05-07 11:01 | 25.54423 | 122.58070 | 30257 ft | 524 kts | 68° |
| 2026-05-07 11:01 | 25.55690 | 122.61868 | 31093 ft | 520 kts | 68° |
| 2026-05-07 11:02 | 25.56928 | 122.65582 | 31949 ft | 515 kts | 68° |
| 2026-05-07 11:02 | 25.58159 | 122.69278 | 32629 ft | 513 kts | 68° |
| 2026-05-07 11:02 | 25.59401 | 122.73009 | 32908 ft | 518 kts | 68° |
| 2026-05-07 11:02 | 25.60655 | 122.76780 | 32925 ft | 517 kts | 68° |
| 2026-05-07 11:03 | 25.63111 | 122.84183 | 32927 ft | 512 kts | 68° |
| 2026-05-07 11:03 | 25.65587 | 122.91586 | 32931 ft | 515 kts | 67° |
| 2026-05-07 11:04 | 25.68100 | 122.99028 | 32930 ft | 513 kts | 67° |
| 2026-05-07 11:04 | 25.70582 | 123.06398 | 32930 ft | 512 kts | 67° |
| 2026-05-07 11:05 | 25.73059 | 123.13766 | 32934 ft | 513 kts | 67° |
| 2026-05-07 11:05 | 25.75534 | 123.21150 | 32930 ft | 512 kts | 67° |
| 2026-05-07 11:06 | 25.78017 | 123.28567 | 32933 ft | 515 kts | 68° |
| 2026-05-07 11:06 | 25.80490 | 123.35975 | 32933 ft | 514 kts | 67° |
| 2026-05-07 11:07 | 25.82967 | 123.43407 | 32934 ft | 514 kts | 67° |
| 2026-05-07 11:07 | 25.85526 | 123.50787 | 32933 ft | 511 kts | 61° |
| 2026-05-07 11:08 | 25.89391 | 123.57310 | 32936 ft | 507 kts | 44° |
| 2026-05-07 11:08 | 25.94679 | 123.62347 | 32929 ft | 493 kts | 27° |
| 2026-05-07 11:09 | 26.00757 | 123.65802 | 32928 ft | 493 kts | 21° |
| 2026-05-07 11:09 | 26.06956 | 123.69028 | 32930 ft | 489 kts | 21° |
| 2026-05-07 11:10 | 26.13138 | 123.72255 | 32940 ft | 488 kts | 20° |
| 2026-05-07 11:10 | 26.19277 | 123.75467 | 32943 ft | 489 kts | 21° |
| 2026-05-07 11:11 | 26.25416 | 123.78685 | 32947 ft | 487 kts | 20° |
| 2026-05-07 11:11 | 26.31553 | 123.81907 | 32950 ft | 490 kts | 20° |
| 2026-05-07 11:12 | 26.37694 | 123.85138 | 32947 ft | 487 kts | 20° |
| 2026-05-07 11:12 | 26.43830 | 123.88368 | 32947 ft | 487 kts | 20° |
| 2026-05-07 11:13 | 26.49985 | 123.91612 | 32949 ft | 490 kts | 20° |
| 2026-05-07 11:13 | 26.56131 | 123.94856 | 32948 ft | 489 kts | 20° |
| 2026-05-07 11:14 | 26.62327 | 123.98177 | 32944 ft | 493 kts | 24° |
| 2026-05-07 11:14 | 26.67839 | 124.02826 | 32947 ft | 503 kts | 41° |
| 2026-05-07 11:15 | 26.72457 | 124.08810 | 32950 ft | 508 kts | 46° |
| 2026-05-07 11:15 | 26.76968 | 124.14857 | 32950 ft | 507 kts | 46° |
| 2026-05-07 11:16 | 26.81506 | 124.20947 | 32952 ft | 511 kts | 46° |
| 2026-05-07 11:16 | 26.86027 | 124.27024 | 32953 ft | 506 kts | 46° |
| 2026-05-07 11:17 | 26.90585 | 124.33154 | 32953 ft | 512 kts | 46° |
| 2026-05-07 11:17 | 26.95098 | 124.39236 | 32955 ft | 508 kts | 46° |
| 2026-05-07 11:18 | 26.99638 | 124.45358 | 32952 ft | 508 kts | 46° |
| 2026-05-07 11:18 | 27.04146 | 124.51442 | 32959 ft | 510 kts | 46° |
| 2026-05-07 11:19 | 27.08683 | 124.57574 | 32953 ft | 507 kts | 46° |
| 2026-05-07 11:19 | 27.13168 | 124.63644 | 32965 ft | 507 kts | 46° |
| 2026-05-07 11:20 | 27.17668 | 124.69741 | 32947 ft | 509 kts | 46° |
| 2026-05-07 11:20 | 27.22187 | 124.75874 | 32949 ft | 507 kts | 46° |
| 2026-05-07 11:21 | 27.26687 | 124.81990 | 32949 ft | 508 kts | 46° |
| 2026-05-07 11:21 | 27.31162 | 124.88082 | 32950 ft | 506 kts | 46° |
| 2026-05-07 11:22 | 27.35688 | 124.94248 | 32953 ft | 506 kts | 46° |
| 2026-05-07 11:22 | 27.40143 | 125.00330 | 32950 ft | 505 kts | 46° |
| 2026-05-07 11:23 | 27.44674 | 125.06442 | 32954 ft | 507 kts | 45° |
| 2026-05-07 11:23 | 27.49179 | 125.12516 | 32951 ft | 507 kts | 45° |
| 2026-05-07 11:24 | 27.53694 | 125.18617 | 32958 ft | 509 kts | 46° |
| 2026-05-07 11:24 | 27.58253 | 125.24785 | 32964 ft | 511 kts | 46° |
| 2026-05-07 11:25 | 27.62806 | 125.30956 | 32961 ft | 507 kts | 46° |
| 2026-05-07 11:25 | 27.67303 | 125.37060 | 32976 ft | 509 kts | 46° |
| 2026-05-07 11:26 | 27.71818 | 125.43197 | 32974 ft | 507 kts | 46° |
| 2026-05-07 11:26 | 27.76321 | 125.49326 | 32979 ft | 511 kts | 46° |
| 2026-05-07 11:27 | 27.80847 | 125.55497 | 32979 ft | 509 kts | 46° |
| 2026-05-07 11:27 | 27.85393 | 125.61702 | 32979 ft | 513 kts | 46° |
| 2026-05-07 11:28 | 27.89864 | 125.67815 | 32969 ft | 511 kts | 47° |
| 2026-05-07 11:28 | 27.94469 | 125.74119 | 32968 ft | 514 kts | 47° |
| 2026-05-07 11:29 | 27.98994 | 125.80325 | 32969 ft | 511 kts | 47° |
| 2026-05-07 11:29 | 28.03517 | 125.86536 | 32974 ft | 516 kts | 47° |
| 2026-05-07 11:30 | 28.08057 | 125.92780 | 32971 ft | 511 kts | 47° |
| 2026-05-07 11:30 | 28.12592 | 125.99024 | 32971 ft | 515 kts | 47° |
| 2026-05-07 11:31 | 28.17127 | 126.05280 | 32969 ft | 514 kts | 47° |
| 2026-05-07 11:31 | 28.21655 | 126.11536 | 32972 ft | 510 kts | 47° |
| 2026-05-07 11:32 | 28.28479 | 126.20978 | 32974 ft | 512 kts | 47° |
| 2026-05-07 11:33 | 28.32994 | 126.27238 | 32978 ft | 512 kts | 47° |
| 2026-05-07 11:33 | 28.37512 | 126.33511 | 32977 ft | 514 kts | 47° |
| 2026-05-07 11:34 | 28.42018 | 126.39776 | 32978 ft | 513 kts | 47° |
| 2026-05-07 11:34 | 28.46596 | 126.46152 | 32976 ft | 512 kts | 47° |
| 2026-05-07 11:35 | 28.51115 | 126.52454 | 32976 ft | 513 kts | 47° |
| 2026-05-07 11:35 | 28.55605 | 126.58726 | 32982 ft | 514 kts | 47° |
| 2026-05-07 11:36 | 28.60097 | 126.65012 | 32980 ft | 511 kts | 47° |
| 2026-05-07 11:36 | 28.64596 | 126.71313 | 32969 ft | 515 kts | 47° |
| 2026-05-07 11:37 | 28.69096 | 126.77628 | 32971 ft | 510 kts | 47° |
| 2026-05-07 11:37 | 28.73593 | 126.83946 | 32970 ft | 515 kts | 47° |
| 2026-05-07 11:38 | 28.78122 | 126.90320 | 32971 ft | 512 kts | 47° |
| 2026-05-07 11:38 | 28.82611 | 126.96647 | 32973 ft | 514 kts | 47° |
| 2026-05-07 11:39 | 28.87106 | 127.02992 | 32972 ft | 511 kts | 47° |
| 2026-05-07 11:39 | 28.91566 | 127.09299 | 32974 ft | 512 kts | 47° |
| 2026-05-07 11:40 | 28.96046 | 127.15641 | 32975 ft | 513 kts | 47° |
| 2026-05-07 11:40 | 29.00517 | 127.21983 | 32981 ft | 514 kts | 47° |
| 2026-05-07 11:41 | 29.04990 | 127.28336 | 32979 ft | 511 kts | 47° |
| 2026-05-07 11:41 | 29.09459 | 127.34692 | 32975 ft | 515 kts | 47° |
| 2026-05-07 11:42 | 29.13963 | 127.41111 | 32980 ft | 511 kts | 47° |
| 2026-05-07 11:42 | 29.18426 | 127.47478 | 32978 ft | 514 kts | 47° |
| 2026-05-07 11:43 | 29.22888 | 127.53854 | 32978 ft | 513 kts | 48° |
| 2026-05-07 11:43 | 29.27379 | 127.60283 | 32980 ft | 513 kts | 48° |
| 2026-05-07 11:44 | 29.31867 | 127.66718 | 32970 ft | 513 kts | 48° |
| 2026-05-07 11:44 | 29.36334 | 127.73130 | 32972 ft | 516 kts | 48° |
| 2026-05-07 11:45 | 29.40805 | 127.79561 | 32979 ft | 515 kts | 48° |
| 2026-05-07 11:45 | 29.45289 | 127.86019 | 32986 ft | 515 kts | 48° |
| 2026-05-07 11:46 | 29.49792 | 127.92515 | 32985 ft | 516 kts | 48° |
| 2026-05-07 11:46 | 29.54281 | 127.99000 | 32981 ft | 516 kts | 48° |
| 2026-05-07 11:47 | 29.58800 | 128.05533 | 32979 ft | 517 kts | 48° |
| 2026-05-07 11:47 | 29.63275 | 128.12010 | 32978 ft | 517 kts | 48° |
| 2026-05-07 11:48 | 29.67737 | 128.18483 | 32977 ft | 515 kts | 47° |
| 2026-05-07 11:48 | 29.72216 | 128.24988 | 32978 ft | 519 kts | 48° |
| 2026-05-07 11:49 | 29.76697 | 128.31508 | 32977 ft | 515 kts | 48° |
| 2026-05-07 11:49 | 29.81121 | 128.37955 | 32979 ft | 515 kts | 47° |
| 2026-05-07 11:50 | 29.85543 | 128.44409 | 32979 ft | 512 kts | 47° |
| 2026-05-07 11:50 | 29.89980 | 128.50893 | 32981 ft | 517 kts | 47° |
| 2026-05-07 11:51 | 29.94426 | 128.57405 | 32978 ft | 513 kts | 47° |
| 2026-05-07 11:51 | 29.98827 | 128.63858 | 32979 ft | 515 kts | 48° |
| 2026-05-07 11:52 | 30.03252 | 128.70358 | 32970 ft | 513 kts | 48° |
| 2026-05-07 11:52 | 30.07685 | 128.76880 | 32965 ft | 514 kts | 49° |
| 2026-05-07 11:53 | 30.12064 | 128.83334 | 32976 ft | 511 kts | 49° |
| 2026-05-07 11:53 | 30.16516 | 128.89905 | 32967 ft | 515 kts | 49° |
| 2026-05-07 11:54 | 30.20933 | 128.96437 | 32973 ft | 511 kts | 49° |
| 2026-05-07 11:54 | 30.25325 | 129.02942 | 32971 ft | 512 kts | 49° |
| 2026-05-07 11:55 | 30.29741 | 129.09491 | 32977 ft | 512 kts | 49° |
| 2026-05-07 11:55 | 30.34135 | 129.16020 | 32975 ft | 511 kts | 49° |
| 2026-05-07 11:56 | 30.38495 | 129.22510 | 32975 ft | 511 kts | 49° |
| 2026-05-07 11:56 | 30.42901 | 129.29077 | 32976 ft | 513 kts | 49° |
| 2026-05-07 11:57 | 30.47251 | 129.35573 | 32977 ft | 511 kts | 49° |
| 2026-05-07 11:57 | 30.51663 | 129.42171 | 32980 ft | 514 kts | 49° |
| 2026-05-07 11:58 | 30.56057 | 129.48753 | 32977 ft | 514 kts | 49° |
| 2026-05-07 11:58 | 30.60433 | 129.55319 | 32980 ft | 514 kts | 49° |
| 2026-05-07 11:59 | 30.64816 | 129.61911 | 32977 ft | 514 kts | 49° |
| 2026-05-07 11:59 | 30.69221 | 129.68543 | 32967 ft | 515 kts | 49° |
| 2026-05-07 12:00 | 30.73587 | 129.75127 | 32962 ft | 514 kts | 49° |
| 2026-05-07 12:00 | 30.77956 | 129.81723 | 32953 ft | 515 kts | 49° |
| 2026-05-07 12:01 | 30.83072 | 129.87468 | 32954 ft | 504 kts | 31° |
| 2026-05-07 12:01 | 30.89338 | 129.91289 | 32952 ft | 495 kts | 14° |
| 2026-05-07 12:02 | 30.96005 | 129.92918 | 32957 ft | 482 kts | 0° |
| 2026-05-07 12:02 | 31.02696 | 129.93633 | 32955 ft | 480 kts | 360° |
| 2026-05-07 12:03 | 31.09360 | 129.94344 | 32966 ft | 483 kts | 360° |
| 2026-05-07 12:03 | 31.16055 | 129.95071 | 32970 ft | 480 kts | 360° |
| 2026-05-07 12:04 | 31.22728 | 129.95801 | 32970 ft | 481 kts | 360° |
| 2026-05-07 12:04 | 31.29447 | 129.96541 | 32969 ft | 480 kts | 359° |
| 2026-05-07 12:05 | 31.36109 | 129.97081 | 32972 ft | 481 kts | 358° |
| 2026-05-07 12:05 | 31.42801 | 129.97594 | 32971 ft | 479 kts | 358° |
| 2026-05-07 12:06 | 31.49536 | 129.98117 | 32970 ft | 479 kts | 358° |
| 2026-05-07 12:06 | 31.56190 | 129.98640 | 32972 ft | 480 kts | 359° |
| 2026-05-07 12:07 | 31.62935 | 129.99175 | 32971 ft | 478 kts | 359° |
| 2026-05-07 12:07 | 31.69624 | 129.99705 | 32965 ft | 478 kts | 359° |
| 2026-05-07 12:08 | 31.76288 | 130.00235 | 32951 ft | 478 kts | 359° |
| 2026-05-07 12:08 | 31.82892 | 130.00763 | 32945 ft | 476 kts | 359° |
| 2026-05-07 12:09 | 31.89528 | 130.01292 | 32944 ft | 478 kts | 359° |
| 2026-05-07 12:09 | 31.96154 | 130.01440 | 32947 ft | 475 kts | 355° |
| 2026-05-07 12:10 | 32.02784 | 130.01486 | 32949 ft | 476 kts | 355° |
| 2026-05-07 12:10 | 32.06078 | 130.01512 | 32646 ft | 469 kts | 355° |
| 2026-05-07 12:10 | 32.09394 | 130.01535 | 31827 ft | 472 kts | 355° |
| 2026-05-07 12:10 | 32.12699 | 130.01558 | 30723 ft | 481 kts | 355° |
| 2026-05-07 12:11 | 32.16060 | 130.01578 | 29513 ft | 491 kts | 355° |
| 2026-05-07 12:11 | 32.19506 | 130.01601 | 28602 ft | 493 kts | 355° |
| 2026-05-07 12:11 | 32.22888 | 130.01627 | 28183 ft | 486 kts | 355° |
| 2026-05-07 12:11 | 32.26244 | 130.01654 | 27849 ft | 477 kts | 355° |
| 2026-05-07 12:12 | 32.29558 | 130.01680 | 27352 ft | 472 kts | 355° |
| 2026-05-07 12:12 | 32.32816 | 130.01703 | 26709 ft | 470 kts | 355° |
| 2026-05-07 12:12 | 32.36050 | 130.01727 | 26107 ft | 468 kts | 355° |
| 2026-05-07 12:12 | 32.39310 | 130.01750 | 25485 ft | 466 kts | 355° |
| 2026-05-07 12:13 | 32.42536 | 130.01775 | 24938 ft | 462 kts | 355° |
| 2026-05-07 12:13 | 32.45759 | 130.01799 | 24377 ft | 459 kts | 355° |
| 2026-05-07 12:13 | 32.48921 | 130.01822 | 23845 ft | 456 kts | 354° |
| 2026-05-07 12:13 | 32.52101 | 130.01845 | 23304 ft | 453 kts | 354° |
| 2026-05-07 12:14 | 32.55212 | 130.01868 | 22767 ft | 450 kts | 354° |
| 2026-05-07 12:14 | 32.58374 | 130.01891 | 22225 ft | 447 kts | 354° |
| 2026-05-07 12:14 | 32.61464 | 130.01914 | 21693 ft | 445 kts | 354° |
| 2026-05-07 12:14 | 32.64544 | 130.01935 | 21177 ft | 442 kts | 355° |
| 2026-05-07 12:15 | 32.67631 | 130.01956 | 20657 ft | 439 kts | 354° |
| 2026-05-07 12:15 | 32.70664 | 130.01979 | 20196 ft | 435 kts | 354° |
| 2026-05-07 12:15 | 32.73683 | 130.01999 | 19762 ft | 432 kts | 355° |
| 2026-05-07 12:15 | 32.76676 | 130.02019 | 19342 ft | 431 kts | 355° |
| 2026-05-07 12:16 | 32.79649 | 130.01959 | 18925 ft | 424 kts | 349° |
| 2026-05-07 12:16 | 32.82554 | 130.01411 | 18499 ft | 417 kts | 342° |
| 2026-05-07 12:16 | 32.85397 | 130.00697 | 18061 ft | 414 kts | 342° |
| 2026-05-07 12:16 | 32.88205 | 129.99980 | 17689 ft | 412 kts | 342° |
| 2026-05-07 12:17 | 32.90978 | 129.99272 | 17355 ft | 410 kts | 342° |
| 2026-05-07 12:17 | 32.93770 | 129.98558 | 17058 ft | 407 kts | 342° |
| 2026-05-07 12:17 | 32.96551 | 129.97847 | 16766 ft | 406 kts | 342° |
| 2026-05-07 12:17 | 32.99313 | 129.97141 | 16491 ft | 406 kts | 342° |
| 2026-05-07 12:18 | 33.02065 | 129.96437 | 16293 ft | 403 kts | 342° |
| 2026-05-07 12:18 | 33.04811 | 129.95734 | 16110 ft | 403 kts | 342° |
| 2026-05-07 12:18 | 33.07534 | 129.95036 | 15994 ft | 401 kts | 342° |
| 2026-05-07 12:18 | 33.10264 | 129.94336 | 15970 ft | 401 kts | 342° |
| 2026-05-07 12:19 | 33.13016 | 129.93631 | 15961 ft | 402 kts | 342° |
| 2026-05-07 12:19 | 33.15751 | 129.92928 | 15955 ft | 402 kts | 342° |
| 2026-05-07 12:19 | 33.18480 | 129.92227 | 15972 ft | 403 kts | 342° |
| 2026-05-07 12:19 | 33.21246 | 129.91716 | 15873 ft | 401 kts | 351° |
| 2026-05-07 12:20 | 33.24039 | 129.91782 | 15413 ft | 404 kts | 1° |
| 2026-05-07 12:20 | 33.26851 | 129.92151 | 14788 ft | 406 kts | 2° |
| 2026-05-07 12:20 | 33.29641 | 129.92526 | 14303 ft | 403 kts | 2° |
| 2026-05-07 12:20 | 33.32412 | 129.92896 | 13905 ft | 398 kts | 2° |
| 2026-05-07 12:21 | 33.35159 | 129.93257 | 13459 ft | 394 kts | 2° |
| 2026-05-07 12:21 | 33.37868 | 129.93605 | 12994 ft | 391 kts | 2° |
| 2026-05-07 12:21 | 33.40568 | 129.93947 | 12546 ft | 387 kts | 2° |
| 2026-05-07 12:21 | 33.43234 | 129.94273 | 11995 ft | 383 kts | 2° |
| 2026-05-07 12:22 | 33.45863 | 129.94589 | 11437 ft | 378 kts | 2° |
| 2026-05-07 12:22 | 33.48452 | 129.94899 | 10890 ft | 374 kts | 2° |
| 2026-05-07 12:22 | 33.51005 | 129.95197 | 10627 ft | 361 kts | 2° |
| 2026-05-07 12:22 | 33.53450 | 129.95488 | 10498 ft | 345 kts | 2° |
| 2026-05-07 12:23 | 33.55790 | 129.95773 | 10414 ft | 329 kts | 2° |
| 2026-05-07 12:23 | 33.58009 | 129.96054 | 10367 ft | 312 kts | 2° |
| 2026-05-07 12:23 | 33.60116 | 129.96329 | 10325 ft | 296 kts | 2° |
| 2026-05-07 12:23 | 33.62138 | 129.96608 | 10114 ft | 288 kts | 2° |
| 2026-05-07 12:24 | 33.64117 | 129.96919 | 9730 ft | 289 kts | 10° |
| 2026-05-07 12:24 | 33.65952 | 129.97965 | 9251 ft | 297 kts | 38° |
| 2026-05-07 12:24 | 33.67258 | 129.99863 | 8873 ft | 298 kts | 59° |
| 2026-05-07 12:24 | 33.68242 | 130.02049 | 8579 ft | 295 kts | 62° |
| 2026-05-07 12:25 | 33.69180 | 130.04217 | 8256 ft | 292 kts | 62° |
| 2026-05-07 12:25 | 33.70101 | 130.06349 | 7975 ft | 288 kts | 62° |
| 2026-05-07 12:25 | 33.71013 | 130.08446 | 7787 ft | 279 kts | 62° |
| 2026-05-07 12:25 | 33.71913 | 130.10496 | 7552 ft | 272 kts | 62° |
| 2026-05-07 12:26 | 33.72780 | 130.12459 | 7319 ft | 266 kts | 62° |
| 2026-05-07 12:26 | 33.73647 | 130.14404 | 6988 ft | 262 kts | 62° |
| 2026-05-07 12:26 | 33.74217 | 130.16466 | 6502 ft | 263 kts | 87° |
| 2026-05-07 12:26 | 33.73914 | 130.18585 | 6057 ft | 262 kts | 116° |
| 2026-05-07 12:27 | 33.72875 | 130.20363 | 5703 ft | 259 kts | 130° |
| 2026-05-07 12:27 | 33.71684 | 130.21979 | 5386 ft | 258 kts | 132° |
| 2026-05-07 12:27 | 33.70511 | 130.23585 | 5062 ft | 258 kts | 132° |
| 2026-05-07 12:27 | 33.69351 | 130.25226 | 4686 ft | 259 kts | 132° |
| 2026-05-07 12:28 | 33.68218 | 130.26881 | 4508 ft | 248 kts | 132° |
| 2026-05-07 12:28 | 33.67181 | 130.28448 | 4361 ft | 239 kts | 132° |
| 2026-05-07 12:28 | 33.66148 | 130.30020 | 4035 ft | 237 kts | 131° |
| 2026-05-07 12:28 | 33.65126 | 130.31567 | 3699 ft | 237 kts | 131° |
| 2026-05-07 12:29 | 33.64099 | 130.33112 | 3369 ft | 236 kts | 131° |
| 2026-05-07 12:29 | 33.63081 | 130.34634 | 3075 ft | 233 kts | 131° |
| 2026-05-07 12:29 | 33.62083 | 130.36110 | 2993 ft | 219 kts | 131° |
| 2026-05-07 12:29 | 33.61079 | 130.37398 | 2823 ft | 208 kts | 140° |
| 2026-05-07 12:30 | 33.60017 | 130.38553 | 2555 ft | 202 kts | 142° |
| 2026-05-07 12:30 | 33.58882 | 130.39445 | 2338 ft | 191 kts | 153° |
| 2026-05-07 12:30 | 33.57742 | 130.40228 | 2048 ft | 187 kts | 153° |
| 2026-05-07 12:30 | 33.56616 | 130.41010 | 1712 ft | 187 kts | 153° |
| 2026-05-07 12:31 | 33.55506 | 130.41779 | 1526 ft | 184 kts | 152° |
| 2026-05-07 12:31 | 33.54397 | 130.42543 | 1492 ft | 182 kts | 152° |
| 2026-05-07 12:31 | 33.53316 | 130.43289 | 1493 ft | 173 kts | 152° |
| 2026-05-07 12:31 | 33.52286 | 130.44020 | 1473 ft | 170 kts | 145° |
| 2026-05-07 12:32 | 33.51508 | 130.45041 | 1352 ft | 165 kts | 121° |
| 2026-05-07 12:32 | 33.51135 | 130.46307 | 1165 ft | 160 kts | 96° |
| 2026-05-07 12:32 | 33.51236 | 130.47623 | 1084 ft | 161 kts | 70° |
| 2026-05-07 12:32 | 33.51849 | 130.48698 | 1008 ft | 156 kts | 31° |
| 2026-05-07 12:33 | 33.53827 | 130.48341 | 850 ft | 157 kts | 328° |
| 2026-05-07 12:33 | 33.54776 | 130.47649 | 670 ft | 156 kts | 331° |
| 2026-05-07 12:33 | 33.55706 | 130.47034 | 477 ft | 154 kts | 331° |
| 2026-05-07 12:34 | 33.56642 | 130.46396 | 272 ft | 154 kts | 332° |
| 2026-05-07 12:34 | 33.57583 | 130.45755 | 85 ft | 156 kts | 332° |
| 2026-05-07 12:34 | 33.58438 | 130.45174 | 50 ft | 116 kts | 331° |
| 2026-05-07 12:34 | 33.58942 | 130.44830 | 50 ft | 49 kts | 330° |
| 2026-05-07 12:35 | 33.59093 | 130.44716 | 50 ft | 18 kts | 314° |
| 2026-05-07 12:35 | 33.59162 | 130.44597 | 50 ft | 16 kts | 300° |
| 2026-05-07 12:35 | 33.59182 | 130.44554 | 50 ft | 0 kts | 299° |
| 2026-05-07 12:37 | 33.59186 | 130.44547 | 51 ft | 3 kts | 299° |
| 2026-05-07 12:37 | 33.59209 | 130.44498 | 50 ft | 9 kts | 299° |
| 2026-05-07 12:37 | 33.59227 | 130.44426 | 50 ft | 8 kts | 261° |
| 2026-05-07 12:38 | 33.59199 | 130.44353 | 51 ft | 10 kts | 240° |
| 2026-05-07 12:38 | 33.59168 | 130.44298 | 51 ft | 4 kts | 206° |
| 2026-05-07 12:38 | 33.59122 | 130.44312 | 51 ft | 9 kts | 154° |
| 2026-05-07 12:38 | 33.59062 | 130.44351 | 51 ft | 9 kts | 149° |
| 2026-05-07 12:39 | 33.59006 | 130.44391 | 51 ft | 9 kts | 149° |
| 2026-05-07 12:39 | 33.58952 | 130.44428 | 51 ft | 8 kts | 150° |
| 2026-05-07 12:39 | 33.58896 | 130.44466 | 51 ft | 10 kts | 150° |
| 2026-05-07 12:39 | 33.58829 | 130.44511 | 51 ft | 11 kts | 150° |
| 2026-05-07 12:40 | 33.58753 | 130.44563 | 51 ft | 12 kts | 150° |
| 2026-05-07 12:40 | 33.58694 | 130.44592 | 51 ft | 6 kts | 195° |
| 2026-05-07 12:40 | 33.58664 | 130.44550 | 51 ft | 6 kts | 239° |
| 2026-05-07 12:40 | 33.58640 | 130.44499 | 51 ft | 6 kts | 241° |
| 2026-05-07 12:41 | 33.58631 | 130.44479 | 51 ft | 0 kts | 240° |